KESF/ESF METAR and TAF weather

Enter ICAO airport designator
Station Type Date Time Source
KESF METAR 2019/05/20 10:05 UTC NOAA

KESF 201005Z AUTO 13004KT 5SM BR OVC004 22/21 A2996 RMK AO2 T02170211


Station Type Date Time Source
KESF Decoded METAR 2019/05/20 10:05 UTC NOAA

ALEXANDRIA ESLER RGNL AIRPORT , LA, United States (KESF) 31-24N 092-18W 28M
May 20, 2019 - 06:05 AM EDT / 2019.05.20 1005 UTC
Wind: from the SE (130 degrees) at 5 MPH (4 KT):0
Visibility: 5 mile(s):0
Sky conditions: overcast
Weather: mist
Temperature: 71.1 F (21.7 C)
Dew Point: 70.0 F (21.1 C)
Relative Humidity: 96%
Pressure (altimeter): 29.96 in. Hg (1014 hPa)
ob: KESF 201005Z AUTO 13004KT 5SM BR OVC004 22/21 A2996 RMK AO2 T02170211
cycle: 10

Station Type Date Time Source
KESF TAF UTC NOAA

Error!

Example: see airport list